createdAt,value
2018-12-20T00:01:08.160Z,94.80
2018-12-20T00:03:30.520Z,94.80
2018-12-20T00:05:52.718Z,94.80
2018-12-20T00:08:15.005Z,94.80
2018-12-20T00:10:37.333Z,94.80
2018-12-20T00:12:59.589Z,94.80
2018-12-20T00:15:22.022Z,94.80
2018-12-20T00:17:47.424Z,94.80
2018-12-20T00:20:09.777Z,94.80
2018-12-20T00:22:32.093Z,94.80
2018-12-20T00:24:54.263Z,94.80
2018-12-20T00:27:16.632Z,94.80
2018-12-20T00:29:38.970Z,94.80
2018-12-20T00:32:01.335Z,94.80
2018-12-20T00:34:23.758Z,94.70
2018-12-20T00:36:45.890Z,94.70
2018-12-20T00:39:08.341Z,94.70
2018-12-20T00:41:30.579Z,94.70
2018-12-20T00:43:52.865Z,94.70
2018-12-20T00:46:15.155Z,94.70
2018-12-20T00:48:37.385Z,94.70
2018-12-20T00:50:59.834Z,94.60
2018-12-20T00:53:22.156Z,94.70
2018-12-20T00:55:44.265Z,94.70
2018-12-20T00:58:06.570Z,94.70
2018-12-20T01:00:28.855Z,94.60
2018-12-20T01:02:55.227Z,94.50
2018-12-20T01:05:13.638Z,94.50
2018-12-20T01:07:35.670Z,94.50
2018-12-20T01:09:57.986Z,94.50
2018-12-20T01:12:20.361Z,94.50
2018-12-20T01:14:45.444Z,94.40
2018-12-20T01:17:04.876Z,94.40
2018-12-20T01:19:27.187Z,94.40
2018-12-20T01:21:49.359Z,94.40
2018-12-20T01:24:11.705Z,94.40
2018-12-20T01:26:33.961Z,94.40
2018-12-20T01:28:56.256Z,94.50
2018-12-20T01:31:18.581Z,94.50
2018-12-20T01:33:41.058Z,94.50
2018-12-20T01:36:03.213Z,94.50
2018-12-20T01:38:25.518Z,94.50
2018-12-20T01:40:47.778Z,94.60
2018-12-20T01:43:10.060Z,94.60
2018-12-20T01:45:32.312Z,94.60
2018-12-20T01:47:54.566Z,94.60
2018-12-20T01:50:16.896Z,94.60
2018-12-20T01:52:39.215Z,94.70
2018-12-20T01:55:01.524Z,94.70
2018-12-20T01:57:23.921Z,94.80
2018-12-20T01:59:46.134Z,94.90
2018-12-20T02:02:08.523Z,94.90
2018-12-20T02:04:30.691Z,95.00
2018-12-20T02:06:52.980Z,95.10
2018-12-20T02:09:15.247Z,95.20
2018-12-20T02:11:37.551Z,95.20
2018-12-20T02:14:00.102Z,95.20
2018-12-20T02:16:22.218Z,95.30
2018-12-20T02:18:44.508Z,95.20
2018-12-20T02:21:06.838Z,95.30
2018-12-20T02:23:29.040Z,95.40
2018-12-20T02:25:51.431Z,95.40
2018-12-20T02:28:13.600Z,95.40
2018-12-20T02:30:36.131Z,95.50
2018-12-20T02:32:58.196Z,95.60
2018-12-20T02:35:20.473Z,95.60
2018-12-20T02:37:42.646Z,95.70
2018-12-20T02:40:05.003Z,95.70
2018-12-20T02:42:27.264Z,95.70
2018-12-20T02:44:49.574Z,95.80
2018-12-20T02:47:11.789Z,95.90
2018-12-20T02:49:33.987Z,95.90
2018-12-20T02:51:56.313Z,96.00
2018-12-20T02:54:18.853Z,96.00
2018-12-20T02:56:40.795Z,96.10
2018-12-20T02:59:03.102Z,96.10
2018-12-20T03:01:25.335Z,96.20
2018-12-20T03:03:47.788Z,96.20
2018-12-20T03:06:09.896Z,96.20
2018-12-20T03:08:32.139Z,96.20
2018-12-20T03:10:54.354Z,96.60
2018-12-20T03:13:16.613Z,96.20
2018-12-20T03:15:38.894Z,96.20
2018-12-20T03:18:01.172Z,96.30
2018-12-20T03:20:23.400Z,96.30
2018-12-20T03:22:45.687Z,96.30
2018-12-20T03:25:07.951Z,96.30
2018-12-20T03:27:30.347Z,96.30
2018-12-20T03:29:52.465Z,96.40
2018-12-20T03:32:14.738Z,96.50
2018-12-20T03:34:37.001Z,96.50
2018-12-20T03:36:59.366Z,96.50
2018-12-20T03:39:21.701Z,96.50
2018-12-20T03:41:43.741Z,96.50
2018-12-20T03:44:06.440Z,96.60
2018-12-20T03:46:28.246Z,96.60
2018-12-20T03:48:50.528Z,96.50
2018-12-20T03:51:12.738Z,96.50
2018-12-20T03:53:34.970Z,96.50
2018-12-20T03:55:57.355Z,96.60
2018-12-20T03:58:19.465Z,96.60
2018-12-20T04:00:41.728Z,96.60
2018-12-20T04:03:04.007Z,96.60
2018-12-20T04:05:26.505Z,96.60
2018-12-20T04:07:48.702Z,96.50
2018-12-20T04:10:10.993Z,96.50
2018-12-20T04:12:33.239Z,96.60
2018-12-20T04:14:55.291Z,96.60
2018-12-20T04:17:17.571Z,96.50
2018-12-20T04:19:39.782Z,96.60
2018-12-20T04:22:02.097Z,96.60
2018-12-20T04:24:24.423Z,96.60
2018-12-20T04:26:46.624Z,96.60
2018-12-20T04:29:09.022Z,96.50
2018-12-20T04:31:31.354Z,96.50
2018-12-20T04:33:53.510Z,96.50
2018-12-20T04:36:15.713Z,96.30
2018-12-20T04:38:38.050Z,96.30
2018-12-20T04:41:00.379Z,96.30
2018-12-20T04:43:22.463Z,96.40
2018-12-20T04:45:46.767Z,96.40
2018-12-20T04:48:07.052Z,96.40
2018-12-20T04:50:29.415Z,96.40
2018-12-20T04:52:51.647Z,96.40
2018-12-20T04:55:13.897Z,96.40
2018-12-20T04:57:36.229Z,96.40
2018-12-20T04:59:58.521Z,96.40
2018-12-20T05:02:20.731Z,96.30
2018-12-20T05:04:42.950Z,96.30
2018-12-20T05:07:05.368Z,96.30
2018-12-20T05:09:27.445Z,96.30
2018-12-20T05:11:49.706Z,96.40
2018-12-20T05:14:12.080Z,96.40
2018-12-20T05:16:34.261Z,96.40
2018-12-20T05:18:56.590Z,96.80
2018-12-20T05:21:18.798Z,96.50
2018-12-20T05:23:41.054Z,96.90
2018-12-20T05:26:03.414Z,96.50
2018-12-20T05:28:25.703Z,96.50
2018-12-20T05:30:47.997Z,96.50
2018-12-20T05:33:10.175Z,96.40
2018-12-20T05:35:32.678Z,96.40
2018-12-20T05:37:55.041Z,96.40
2018-12-20T05:40:17.001Z,96.40
2018-12-20T05:42:39.292Z,96.40
2018-12-20T05:45:01.659Z,96.40
2018-12-20T05:47:23.891Z,96.50
2018-12-20T05:49:46.250Z,96.50
2018-12-20T05:52:08.486Z,96.40
2018-12-20T05:54:31.016Z,96.30
2018-12-20T05:56:53.117Z,96.30
2018-12-20T05:59:15.430Z,96.10
2018-12-20T06:01:37.616Z,96.10
2018-12-20T06:03:59.983Z,96.10
2018-12-20T06:06:22.331Z,96.10
2018-12-20T06:08:44.503Z,96.00
2018-12-20T06:11:07.055Z,96.00
2018-12-20T06:13:29.154Z,96.00
2018-12-20T06:15:51.644Z,95.90
2018-12-20T06:18:13.920Z,95.90
2018-12-20T06:20:36.001Z,95.80
2018-12-20T06:22:58.260Z,95.80
2018-12-20T06:25:21.409Z,95.70
2018-12-20T06:27:42.830Z,95.60
2018-12-20T06:30:05.227Z,95.60
2018-12-20T06:32:27.475Z,95.60
2018-12-20T06:34:49.748Z,95.50
2018-12-20T06:37:11.979Z,95.20
2018-12-20T06:39:34.232Z,95.20
2018-12-20T06:41:56.523Z,95.30
2018-12-20T06:44:18.759Z,95.40
2018-12-20T06:46:46.728Z,95.40
2018-12-20T06:49:08.999Z,95.30
2018-12-20T06:51:31.267Z,95.30
2018-12-20T06:53:53.484Z,95.30
2018-12-20T06:56:15.702Z,95.40
2018-12-20T06:58:37.920Z,95.40
2018-12-20T07:01:00.270Z,95.50
2018-12-20T07:03:22.505Z,95.40
2018-12-20T07:05:44.787Z,95.40
2018-12-20T07:08:07.079Z,95.40
2018-12-20T07:10:29.338Z,95.50
2018-12-20T07:12:51.558Z,95.50
2018-12-20T07:15:13.839Z,95.50
2018-12-20T07:17:36.633Z,95.50
2018-12-20T07:19:58.868Z,95.40
2018-12-20T07:22:21.634Z,95.50
2018-12-20T07:24:43.487Z,95.50
2018-12-20T07:27:05.783Z,95.60
2018-12-20T07:29:28.027Z,95.50
2018-12-20T07:31:50.258Z,95.50
2018-12-20T07:34:12.520Z,95.40
2018-12-20T07:36:34.824Z,95.30
2018-12-20T07:38:57.081Z,95.30
2018-12-20T07:41:19.312Z,95.30
2018-12-20T07:43:41.608Z,95.40
2018-12-20T07:46:03.881Z,95.40
2018-12-20T07:48:32.036Z,95.30
2018-12-20T07:50:48.471Z,95.20
2018-12-20T07:53:10.738Z,95.20
2018-12-20T07:55:32.971Z,95.20
2018-12-20T07:57:55.227Z,95.20
2018-12-20T08:00:17.478Z,95.10
2018-12-20T08:02:39.728Z,95.10
2018-12-20T08:05:02.028Z,95.10
2018-12-20T08:07:24.307Z,95.10
2018-12-20T08:09:46.563Z,95.00
2018-12-20T08:12:08.864Z,95.10
2018-12-20T08:14:31.200Z,95.20
2018-12-20T08:16:53.471Z,95.10
2018-12-20T08:19:15.766Z,95.00
2018-12-20T08:21:38.052Z,95.10
2018-12-20T08:24:00.302Z,95.10
2018-12-20T08:26:22.707Z,95.20
2018-12-20T08:28:45.052Z,95.20
2018-12-20T08:31:07.336Z,95.30
2018-12-20T08:33:29.576Z,95.40
2018-12-20T08:35:51.931Z,95.60
2018-12-20T08:38:14.486Z,95.50
2018-12-20T08:40:36.776Z,95.50
2018-12-20T08:42:59.023Z,95.60
2018-12-20T08:45:21.280Z,95.70
2018-12-20T08:47:43.670Z,95.70
2018-12-20T08:50:06.793Z,95.80
2018-12-20T08:52:29.073Z,95.60
2018-12-20T08:54:51.313Z,95.50
2018-12-20T08:57:13.543Z,95.20
2018-12-20T08:59:35.819Z,95.10
2018-12-20T09:01:58.123Z,95.10
2018-12-20T09:04:20.363Z,95.10
2018-12-20T09:06:42.654Z,94.40
2018-12-20T09:09:05.925Z,94.30
2018-12-20T09:11:28.195Z,93.70
2018-12-20T09:13:50.426Z,93.30
2018-12-20T09:16:12.675Z,93.60
2018-12-20T09:18:34.951Z,93.60
2018-12-20T09:20:57.226Z,93.70
2018-12-20T09:23:19.501Z,93.60
2018-12-20T09:25:41.841Z,93.50
2018-12-20T09:28:04.098Z,93.50
2018-12-20T09:30:30.415Z,93.60
2018-12-20T09:32:48.883Z,93.40
2018-12-20T09:35:11.147Z,93.00
2018-12-20T09:37:33.423Z,92.90
2018-12-20T09:39:55.718Z,92.60
2018-12-20T09:42:18.097Z,92.60
2018-12-20T09:44:40.457Z,92.40
2018-12-20T09:47:11.870Z,92.50
2018-12-20T09:49:30.816Z,92.50
2018-12-20T09:51:53.078Z,92.60
2018-12-20T09:54:15.344Z,92.30
2018-12-20T09:56:37.609Z,91.90
2018-12-20T09:58:59.904Z,92.00
2018-12-20T10:01:22.256Z,92.00
2018-12-20T10:03:44.620Z,91.90
2018-12-20T10:06:06.871Z,92.10
2018-12-20T10:08:29.231Z,91.60
2018-12-20T10:10:51.964Z,91.40
2018-12-20T10:13:14.213Z,91.00
2018-12-20T10:15:37.225Z,90.90
2018-12-20T10:17:58.831Z,90.70
2018-12-20T10:20:21.123Z,89.30
2018-12-20T10:22:43.427Z,89.50
2018-12-20T10:25:05.688Z,89.30
2018-12-20T10:27:31.574Z,89.20
2018-12-20T10:29:50.480Z,90.00
2018-12-20T10:32:12.985Z,90.10
2018-12-20T10:34:35.295Z,89.60
2018-12-20T10:36:57.555Z,89.80
2018-12-20T10:39:19.835Z,89.90
2018-12-20T10:41:42.325Z,89.10
2018-12-20T10:44:04.579Z,88.10
2018-12-20T10:46:26.904Z,89.50
2018-12-20T10:48:49.189Z,88.10
2018-12-20T10:51:11.499Z,86.70
2018-12-20T10:53:33.834Z,87.40
2018-12-20T10:55:56.106Z,88.60
2018-12-20T10:58:18.383Z,87.50
2018-12-20T11:00:46.795Z,86.60
2018-12-20T11:03:14.778Z,86.10
2018-12-20T11:05:42.643Z,84.70
2018-12-20T11:08:10.571Z,85.70
2018-12-20T11:10:32.856Z,83.50
2018-12-20T11:12:55.270Z,83.30
2018-12-20T11:15:17.629Z,82.20
2018-12-20T11:17:39.911Z,83.40
2018-12-20T11:20:02.252Z,82.60
2018-12-20T11:22:24.556Z,82.30
2018-12-20T11:24:47.659Z,81.70
2018-12-20T11:27:11.461Z,81.30
2018-12-20T11:29:34.133Z,79.80
2018-12-20T11:31:56.417Z,80.80
2018-12-20T11:34:18.768Z,79.80
2018-12-20T11:36:41.203Z,78.80
2018-12-20T11:39:08.527Z,79.10
2018-12-20T11:41:28.047Z,79.50
2018-12-20T11:43:50.376Z,81.20
2018-12-20T11:46:12.684Z,81.90
2018-12-20T11:48:35.389Z,82.00
2018-12-20T11:50:57.643Z,81.10
2018-12-20T11:53:19.910Z,81.50
2018-12-20T11:55:42.203Z,79.80
2018-12-20T11:58:04.511Z,80.30
2018-12-20T12:00:26.832Z,79.60
2018-12-20T12:02:49.084Z,78.40
2018-12-20T12:05:11.491Z,79.10
2018-12-20T12:07:33.798Z,77.80
2018-12-20T12:09:56.098Z,78.70
2018-12-20T12:12:18.539Z,78.60
2018-12-20T12:14:40.883Z,78.10
2018-12-20T12:17:03.276Z,79.20
2018-12-20T12:19:25.674Z,79.20
2018-12-20T12:21:49.486Z,77.90
2018-12-20T12:24:10.428Z,77.10
2018-12-20T12:26:32.718Z,77.40
2018-12-20T12:28:55.079Z,77.20
2018-12-20T12:31:17.509Z,77.60
2018-12-20T12:33:39.823Z,78.90
2018-12-20T12:36:02.127Z,79.00
2018-12-20T12:38:24.439Z,78.60
2018-12-20T12:40:46.788Z,77.80
2018-12-20T12:43:09.332Z,78.50
2018-12-20T12:45:31.675Z,78.40
2018-12-20T12:48:03.095Z,78.90
2018-12-20T12:50:21.470Z,78.60
2018-12-20T12:52:43.833Z,78.30
2018-12-20T12:55:06.246Z,77.30
2018-12-20T12:57:28.690Z,78.60
2018-12-20T12:59:51.087Z,76.90
2018-12-20T13:02:13.495Z,77.90
2018-12-20T13:04:36.108Z,77.40
2018-12-20T13:06:58.450Z,77.40
2018-12-20T13:09:20.882Z,76.90
2018-12-20T13:11:43.456Z,76.80
2018-12-20T13:14:05.870Z,77.10
2018-12-20T13:16:28.204Z,77.80
2018-12-20T13:18:50.546Z,77.40
2018-12-20T13:21:12.839Z,77.70
2018-12-20T13:23:35.175Z,76.60
2018-12-20T13:25:57.475Z,77.10
2018-12-20T13:28:19.827Z,76.00
2018-12-20T13:30:42.350Z,79.20
2018-12-20T13:33:04.676Z,77.70
2018-12-20T13:35:26.988Z,76.00
2018-12-20T13:37:49.243Z,74.40
2018-12-20T13:40:11.575Z,75.10
2018-12-20T13:42:33.923Z,75.90
2018-12-20T13:44:56.248Z,76.50
2018-12-20T13:47:18.887Z,75.10
2018-12-20T13:49:40.968Z,75.80
2018-12-20T13:52:03.431Z,74.70
2018-12-20T13:54:25.628Z,73.00
2018-12-20T13:56:48.067Z,73.70
2018-12-20T13:59:10.344Z,73.10
2018-12-20T14:01:32.676Z,72.10
2018-12-20T14:03:57.089Z,71.10
2018-12-20T14:06:17.268Z,71.50
2018-12-20T14:08:39.608Z,72.50
2018-12-20T14:11:01.929Z,71.40
2018-12-20T14:13:24.206Z,72.40
2018-12-20T14:15:46.519Z,72.70
2018-12-20T14:18:08.827Z,72.60
2018-12-20T14:20:31.115Z,71.80
2018-12-20T14:22:53.406Z,72.10
2018-12-20T14:25:15.742Z,72.70
2018-12-20T14:27:38.016Z,72.60
2018-12-20T14:30:00.334Z,72.70
2018-12-20T14:32:22.638Z,71.60
2018-12-20T14:34:44.951Z,72.30
2018-12-20T14:37:07.335Z,72.40
2018-12-20T14:39:29.605Z,72.90
2018-12-20T14:41:51.967Z,73.30
2018-12-20T14:44:14.277Z,73.80
2018-12-20T14:46:36.587Z,74.90
2018-12-20T14:48:58.932Z,74.90
2018-12-20T14:51:21.254Z,75.20
2018-12-20T14:53:43.523Z,75.90
2018-12-20T14:56:05.827Z,77.10
2018-12-20T14:58:28.118Z,76.50
2018-12-20T15:00:50.387Z,76.50
2018-12-20T15:03:12.699Z,75.30
2018-12-20T15:05:34.992Z,75.80
2018-12-20T15:07:57.299Z,75.40
2018-12-20T15:10:19.670Z,75.30
2018-12-20T15:12:41.960Z,75.80
2018-12-20T15:15:04.978Z,76.50
2018-12-20T15:17:27.291Z,77.70
2018-12-20T15:19:49.663Z,77.60
2018-12-20T15:22:12.016Z,76.30
2018-12-20T15:24:34.308Z,75.40
2018-12-20T15:26:56.630Z,76.00
2018-12-20T15:29:18.937Z,76.00
2018-12-20T15:31:41.240Z,77.50
2018-12-20T15:34:03.639Z,77.50
2018-12-20T15:36:26.017Z,78.60
2018-12-20T15:38:49.854Z,81.10
2018-12-20T15:41:10.688Z,81.10
2018-12-20T15:43:33.045Z,81.30
2018-12-20T15:45:55.387Z,81.60
2018-12-20T15:48:17.850Z,80.80
2018-12-20T15:50:40.207Z,78.80
2018-12-20T15:54:27.065Z,78.30
2018-12-20T15:56:49.358Z,79.80
2018-12-20T15:59:11.638Z,81.30
2018-12-20T16:01:33.971Z,80.90
2018-12-20T16:03:56.334Z,78.50
2018-12-20T16:06:18.690Z,78.30
2018-12-20T16:08:40.967Z,79.70
2018-12-20T16:11:03.386Z,79.90
2018-12-20T16:13:25.694Z,79.70
2018-12-20T16:15:48.006Z,79.50
2018-12-20T16:18:10.343Z,79.20
2018-12-20T16:20:32.647Z,78.90
2018-12-20T16:22:54.991Z,78.50
2018-12-20T16:25:18.087Z,78.90
2018-12-20T16:27:40.585Z,80.20
2018-12-20T16:30:03.519Z,80.70
2018-12-20T16:32:25.948Z,81.10
2018-12-20T16:34:48.479Z,81.80
2018-12-20T16:37:10.956Z,80.90
2018-12-20T16:39:33.417Z,81.40
2018-12-20T16:41:55.943Z,81.30
2018-12-20T16:44:18.441Z,80.80
2018-12-20T16:46:40.949Z,80.30
2018-12-20T16:49:03.491Z,79.00
2018-12-20T16:51:25.944Z,79.70
2018-12-20T17:00:40.144Z,79.90
2018-12-20T17:03:02.921Z,80.10
2018-12-20T17:05:25.364Z,80.20
2018-12-20T17:07:47.753Z,80.60
2018-12-20T17:10:10.188Z,79.80
2018-12-20T17:12:32.641Z,79.70
2018-12-20T17:14:55.461Z,80.30
2018-12-20T17:17:17.955Z,81.70
2018-12-20T17:19:40.516Z,82.70
2018-12-20T17:22:03.080Z,82.40
2018-12-20T17:24:25.467Z,81.50
2018-12-20T17:26:48.002Z,81.30
2018-12-20T17:29:10.476Z,81.20
2018-12-20T17:31:32.964Z,80.70
2018-12-20T17:33:55.501Z,80.00
2018-12-20T17:36:17.933Z,79.80
2018-12-20T17:38:40.452Z,80.40
2018-12-20T17:41:02.882Z,80.90
2018-12-20T17:43:26.229Z,81.30
2018-12-20T17:45:48.737Z,80.70
2018-12-20T17:48:11.244Z,79.60
2018-12-20T17:50:33.892Z,79.80
2018-12-20T17:52:56.211Z,80.40
2018-12-20T17:55:18.619Z,80.70
2018-12-20T17:57:41.648Z,80.60
2018-12-20T18:00:05.223Z,80.40
2018-12-20T18:02:27.697Z,81.40
2018-12-20T18:04:50.213Z,81.60
2018-12-20T18:07:12.636Z,81.00
2018-12-20T18:09:35.076Z,80.60
2018-12-20T18:11:57.621Z,80.50
2018-12-20T18:14:20.087Z,79.80
2018-12-20T18:16:42.511Z,80.80
2018-12-20T18:19:05.088Z,81.80
2018-12-20T18:21:27.632Z,82.00
2018-12-20T18:23:50.205Z,82.40
2018-12-20T18:26:12.773Z,81.80
2018-12-20T18:28:35.236Z,82.50
2018-12-20T18:30:57.712Z,82.60
2018-12-20T18:33:20.118Z,83.30
2018-12-20T18:35:42.636Z,82.60
2018-12-20T18:38:05.227Z,81.80
2018-12-20T18:40:27.761Z,80.90
2018-12-20T18:42:50.265Z,79.80
2018-12-20T18:45:12.942Z,80.00
2018-12-20T18:47:35.510Z,79.60
2018-12-20T18:49:57.815Z,80.30
2018-12-20T18:52:20.202Z,79.70
2018-12-20T18:54:42.463Z,80.10
2018-12-20T18:57:04.757Z,80.80
2018-12-20T18:59:27.062Z,80.30
2018-12-20T19:01:49.364Z,80.00
2018-12-20T19:04:11.811Z,78.60
2018-12-20T19:06:34.014Z,75.90
2018-12-20T19:08:56.287Z,75.80
2018-12-20T19:11:18.625Z,76.30
2018-12-20T19:13:40.931Z,76.60
2018-12-20T19:16:03.263Z,75.30
2018-12-20T19:18:25.562Z,76.20
2018-12-20T19:20:47.839Z,76.30
2018-12-20T19:23:10.116Z,75.70
2018-12-20T19:25:33.864Z,76.40
2018-12-20T19:27:56.145Z,76.70
2018-12-20T19:30:18.437Z,75.80
2018-12-20T19:32:40.717Z,75.30
2018-12-20T19:35:03.049Z,76.00
2018-12-20T19:37:25.345Z,75.80
2018-12-20T19:39:48.584Z,75.50
2018-12-20T19:42:13.364Z,75.60
2018-12-20T19:44:35.699Z,75.90
2018-12-20T19:46:57.997Z,76.10
2018-12-20T19:49:20.312Z,76.20
2018-12-20T19:51:42.651Z,74.70
2018-12-20T19:54:05.043Z,75.60
2018-12-20T19:56:27.328Z,75.50
2018-12-20T19:58:49.711Z,75.70
2018-12-20T20:01:12.063Z,75.80
2018-12-20T20:03:34.406Z,74.70
2018-12-20T20:05:56.709Z,75.50
2018-12-20T20:08:18.984Z,75.60
2018-12-20T20:10:41.283Z,76.30
2018-12-20T20:13:03.619Z,75.80
2018-12-20T20:15:25.955Z,76.00
2018-12-20T20:17:48.282Z,76.20
2018-12-20T20:20:14.211Z,76.20
2018-12-20T20:22:32.923Z,76.50
2018-12-20T20:24:55.203Z,77.40
2018-12-20T20:27:17.477Z,77.80
2018-12-20T20:29:39.775Z,77.90
2018-12-20T20:32:02.108Z,77.10
2018-12-20T20:34:24.479Z,77.50
2018-12-20T20:36:46.738Z,76.10
2018-12-20T20:39:09.033Z,76.60
2018-12-20T20:41:31.330Z,77.30
2018-12-20T20:43:55.573Z,76.80
2018-12-20T20:46:15.928Z,76.70
2018-12-20T20:48:38.202Z,77.00
2018-12-20T20:51:00.481Z,77.30
2018-12-20T20:53:22.780Z,76.20
2018-12-20T20:55:45.092Z,77.00
2018-12-20T20:58:07.374Z,77.10
2018-12-20T21:00:29.690Z,76.40
2018-12-20T21:02:51.961Z,76.70
2018-12-20T21:05:14.294Z,77.20
2018-12-20T21:07:36.948Z,77.40
2018-12-20T21:09:59.303Z,77.70
2018-12-20T21:12:23.014Z,78.40
2018-12-20T21:14:52.178Z,78.30
2018-12-20T21:17:06.308Z,78.20
2018-12-20T21:19:28.591Z,78.60
2018-12-20T21:21:50.860Z,78.60
2018-12-20T21:24:13.162Z,79.40
2018-12-20T21:26:35.451Z,79.90
2018-12-20T21:28:57.738Z,80.10
2018-12-20T21:31:20.087Z,79.90
2018-12-20T21:33:42.371Z,80.30
2018-12-20T21:36:04.651Z,80.50
2018-12-20T21:38:26.920Z,80.90
2018-12-20T21:40:49.216Z,80.90
2018-12-20T21:43:11.623Z,80.90
2018-12-20T21:45:33.912Z,81.60
2018-12-20T21:47:56.184Z,81.80
2018-12-20T21:50:18.541Z,80.90
2018-12-20T21:52:40.843Z,81.20
2018-12-20T21:55:03.250Z,81.10
2018-12-20T21:57:25.522Z,81.60
2018-12-20T21:59:47.816Z,81.10
2018-12-20T22:02:10.125Z,81.60
2018-12-20T22:04:32.463Z,82.20
2018-12-20T22:06:54.746Z,82.10
2018-12-20T22:09:17.041Z,81.60
2018-12-20T22:11:39.293Z,81.90
2018-12-20T22:14:01.635Z,82.60
2018-12-20T22:16:23.946Z,82.60
2018-12-20T22:18:46.248Z,81.00
2018-12-20T22:21:08.596Z,81.80
2018-12-20T22:23:30.854Z,82.50
2018-12-20T22:25:53.170Z,82.50
2018-12-20T22:28:15.448Z,82.00
2018-12-20T22:30:37.703Z,82.70
2018-12-20T22:32:59.983Z,82.50
2018-12-20T22:35:22.283Z,82.70
2018-12-20T22:37:44.598Z,83.60
2018-12-20T22:40:07.492Z,84.30
2018-12-20T22:42:29.800Z,84.50
2018-12-20T22:44:52.134Z,84.60
2018-12-20T22:47:14.410Z,83.60
2018-12-20T22:49:36.747Z,83.70
2018-12-20T22:51:59.039Z,83.60
2018-12-20T22:54:21.319Z,83.50
2018-12-20T22:56:43.568Z,83.10
2018-12-20T22:59:05.930Z,83.70
2018-12-20T23:01:28.226Z,82.70
2018-12-20T23:03:50.554Z,83.10
2018-12-20T23:06:12.851Z,82.80
2018-12-20T23:08:35.132Z,83.20
2018-12-20T23:10:57.387Z,83.20
2018-12-20T23:13:19.711Z,83.10
2018-12-20T23:15:42.001Z,82.90
2018-12-20T23:18:04.306Z,83.00
2018-12-20T23:20:26.616Z,83.50
2018-12-20T23:22:48.906Z,83.40
2018-12-20T23:25:11.220Z,83.40
2018-12-20T23:27:33.524Z,83.40
2018-12-20T23:29:55.815Z,83.40
2018-12-20T23:32:18.111Z,83.20
2018-12-20T23:34:40.375Z,83.20
2018-12-20T23:37:02.673Z,83.40
2018-12-20T23:39:24.980Z,83.50
2018-12-20T23:41:47.328Z,82.90
2018-12-20T23:44:09.639Z,82.80
2018-12-20T23:46:31.919Z,83.50
2018-12-20T23:48:54.172Z,84.00
2018-12-20T23:51:16.448Z,83.90
2018-12-20T23:53:38.764Z,83.80
2018-12-20T23:56:01.039Z,83.40
2018-12-20T23:58:23.299Z,83.40
